.
WxDataArchive / Data Records for 2008-09-03
2008-09-02 September 2008  

Data Records for Wednesday, 03 September 2008

Time	Temp	Chill	HIndex	Humid	Dewpt	 Wind 	HiWind	WindDir	Rain 	Barom 
-----	----	-----	------	-----	-----	------	------	-------	-----	----- 
00:00	71.1	71.1	71.1	66	59.2	0	0	---	0.00	29.941 
00:05	70.8	70.8	70.8	66	58.9	0	0	---	0.00	29.939 
00:10	70.6	70.6	70.6	67	59.1	0	0	---	0.00	29.939 
00:15	70.4	70.4	70.4	67	58.9	0	0	---	0.00	29.940 
00:20	70.1	70.1	70.1	67	58.6	0	0	---	0.00	29.939 
00:25	69.9	69.9	69.9	68	58.8	0	0	---	0.00	29.938 
00:30	69.6	69.6	69.6	69	59.0	0	0	---	0.00	29.936 
00:35	69.4	69.4	69.4	69	58.8	0	0	---	0.00	29.935 
00:40	69.3	69.3	69.3	68	58.3	0	0	---	0.00	29.932 
00:45	69.1	69.1	69.1	68	58.1	0	0	---	0.00	29.930 
00:50	69.1	69.1	69.1	69	58.5	0	0	---	0.00	29.926 
00:55	68.9	68.9	68.9	68	57.9	0	0	---	0.00	29.925 
01:00	68.9	68.9	68.9	68	57.9	0	0	---	0.00	29.925 
01:05	68.9	68.9	68.9	68	57.9	0	0	---	0.00	29.925 
01:10	68.9	68.9	68.9	68	57.9	0	0	---	0.00	29.925 
01:15	68.8	68.8	68.8	68	57.8	0	0	---	0.00	29.925 
01:20	68.6	68.6	68.6	68	57.6	0	0	---	0.00	29.924 
01:25	68.4	68.4	68.4	68	57.4	0	0	---	0.00	29.924 
01:30	68.3	68.3	68.3	68	57.3	0	0	---	0.00	29.923 
01:35	68.1	68.1	68.1	69	57.5	0	0	---	0.00	29.924 
01:40	67.9	67.9	67.9	69	57.3	0	0	---	0.00	29.923 
01:45	67.8	67.8	67.8	71	58.0	0	0	---	0.00	29.921 
01:50	67.6	67.6	67.6	72	58.2	0	0	---	0.00	29.920 
01:55	67.4	67.4	67.4	72	58.1	0	0	---	0.00	29.922 
02:00	67.3	67.3	67.3	73	58.3	0	0	---	0.00	29.923 
02:05	67.1	67.1	67.1	73	58.1	0	0	---	0.00	29.921 
02:10	66.8	66.8	66.8	74	58.2	0	0	---	0.00	29.921 
02:15	66.8	66.8	66.8	75	58.6	0	0	---	0.00	29.921 
02:20	66.6	66.6	66.6	75	58.4	0	0	---	0.00	29.921 
02:25	66.4	66.4	66.4	76	58.6	0	0	---	0.00	29.922 
02:30	66.3	66.3	66.3	77	58.9	0	0	---	0.00	29.922 
02:35	66.1	66.1	66.1	77	58.7	0	0	---	0.00	29.922 
02:40	66.0	66.0	66.0	77	58.6	0	0	---	0.00	29.923 
02:45	65.8	65.8	65.8	77	58.4	0	0	---	0.00	29.921 
02:50	65.6	65.6	65.6	78	58.5	0	0	---	0.00	29.922 
02:55	65.5	65.5	65.5	79	58.8	0	0	---	0.00	29.922 
03:00	65.3	65.3	65.3	79	58.6	0	0	---	0.00	29.920 
03:05	65.2	65.2	65.2	80	58.9	0	0	---	0.00	29.923 
03:10	65.0	65.0	65.0	80	58.7	0	0	---	0.00	29.922 
03:15	64.8	64.8	64.8	80	58.5	0	0	---	0.00	29.921 
03:20	64.7	64.7	64.7	80	58.4	0	0	---	0.00	29.919 
03:25	64.5	64.5	64.5	81	58.5	0	0	---	0.00	29.917 
03:30	64.3	64.3	64.3	81	58.3	0	0	---	0.00	29.916 
03:35	64.3	64.3	64.3	82	58.7	0	0	---	0.00	29.917 
03:40	64.2	64.2	64.2	82	58.6	0	0	---	0.00	29.915 
03:45	64.0	64.0	64.0	82	58.4	0	0	---	0.00	29.916 
03:50	63.9	63.9	63.9	83	58.6	0	0	---	0.00	29.916 
03:55	63.9	63.9	63.9	83	58.6	0	0	---	0.00	29.915 
04:00	63.7	63.7	63.7	84	58.8	0	0	---	0.00	29.913 
04:05	63.5	63.5	63.5	84	58.6	0	0	---	0.00	29.914 
04:10	63.4	63.4	63.4	84	58.5	0	0	---	0.00	29.913 
04:15	63.4	63.4	63.4	85	58.8	0	0	---	0.00	29.912 
04:20	63.2	63.2	63.2	85	58.6	0	0	---	0.00	29.912 
04:25	63.2	63.2	63.2	85	58.6	0	0	---	0.00	29.912 
04:30	63.2	63.2	63.2	86	58.9	0	0	---	0.00	29.911 
04:35	63.1	63.1	63.1	86	58.8	0	0	---	0.00	29.911 
04:40	63.1	63.1	63.1	86	58.8	0	0	---	0.00	29.910 
04:45	63.1	63.1	63.1	86	58.8	0	0	---	0.00	29.909 
04:50	62.9	62.9	62.9	87	59.0	0	0	---	0.00	29.910 
04:55	62.9	62.9	62.9	87	59.0	0	0	---	0.00	29.910 
05:00	62.9	62.9	62.9	87	59.0	0	0	---	0.00	29.909 
05:05	62.9	62.9	62.9	88	59.3	0	0	---	0.00	29.911 
05:10	62.9	62.9	62.9	88	59.3	0	0	---	0.00	29.911 
05:15	63.1	63.1	63.1	87	59.2	0	0	---	0.00	29.911 
05:20	63.1	63.1	63.1	87	59.2	0	0	---	0.00	29.911 
05:25	63.1	63.1	63.1	86	58.8	0	0	---	0.00	29.912 
05:30	62.9	62.9	62.9	86	58.6	0	0	---	0.00	29.912 
05:35	62.9	62.9	62.9	87	59.0	0	0	---	0.00	29.913 
05:40	62.7	62.7	62.7	87	58.8	0	0	---	0.00	29.912 
05:45	62.7	62.7	62.7	87	58.8	0	0	---	0.00	29.913 
05:50	62.6	62.6	62.6	87	58.7	0	0	---	0.00	29.913 
05:55	62.6	62.6	62.6	88	59.0	0	0	---	0.00	29.914 
06:00	62.6	62.6	62.6	88	59.0	0	0	---	0.00	29.914 
06:05	62.6	62.6	62.6	88	59.0	0	0	---	0.00	29.919 
06:10	62.6	62.6	62.6	88	59.0	0	0	---	0.00	29.919 
06:15	62.6	62.6	62.6	89	59.3	0	0	---	0.00	29.921 
06:20	62.7	62.7	62.7	89	59.4	0	0	---	0.00	29.921 
06:25	62.7	62.7	62.7	89	59.4	0	0	---	0.00	29.922 
06:30	62.7	62.7	62.7	89	59.4	0	0	---	0.00	29.925 
06:35	62.7	62.7	62.7	89	59.4	0	0	---	0.00	29.926 
06:40	62.9	62.9	62.9	89	59.6	0	0	---	0.00	29.927 
06:45	63.1	63.1	63.1	89	59.8	0	0	---	0.00	29.928 
06:50	63.2	63.2	63.2	89	59.9	0	0	---	0.00	29.929 
06:55	63.5	63.5	63.5	89	60.2	0	0	---	0.00	29.930 
07:00	63.9	63.9	63.9	89	60.6	0	0	---	0.00	29.930 
07:05	64.2	64.2	64.2	89	60.9	0	0	---	0.00	29.937 
07:10	64.7	64.7	64.7	88	61.1	0	0	---	0.00	29.938 
07:15	65.3	65.3	65.3	88	61.6	0	0	---	0.00	29.938 
07:20	66.1	66.1	66.1	87	62.1	0	0	---	0.00	29.940 
07:25	66.9	66.9	66.9	86	62.6	0	0	---	0.00	29.938 
07:30	67.6	67.6	67.6	82	61.9	0	0	---	0.00	29.937 
07:35	68.4	68.4	68.4	79	61.6	0	0	---	0.00	29.937 
07:40	69.3	69.3	69.3	78	62.1	0	0	---	0.00	29.935 
07:45	69.9	69.9	69.9	76	62.0	0	0	---	0.00	29.936 
07:50	70.6	70.6	70.6	73	61.5	0	0	---	0.00	29.936 
07:55	71.1	71.1	71.1	71	61.2	0	0	---	0.00	29.935 
08:00	71.8	71.8	71.8	69	61.1	0	1	0	0.00	29.935 
08:05	72.5	72.5	72.5	68	61.3	0	1	0	0.00	29.938 
08:10	73.2	73.2	73.2	67	61.6	0	1	0	0.00	29.934 
08:15	73.9	73.9	73.9	65	61.4	0	1	0	0.00	29.932 
08:20	74.6	74.6	74.6	65	62.0	0	0	---	0.00	29.932 
08:25	75.1	75.1	77.2	64	62.1	0	1	0	0.00	29.930 
08:30	75.8	75.8	77.7	64	62.7	0	1	0	0.00	29.930 
08:35	76.5	76.5	78.3	63	62.9	0	1	0	0.00	29.929 
08:40	77.2	77.2	79.0	64	64.1	0	0	---	0.00	29.925 
08:45	77.9	77.9	79.7	63	64.3	0	1	0	0.00	29.922 
08:50	78.6	78.6	80.4	63	64.9	0	1	0	0.00	29.918 
08:55	79.4	79.4	81.3	62	65.2	0	1	0	0.00	29.917 
09:00	80.1	80.1	82.2	62	65.9	0	1	0	0.00	29.916 
09:05	80.9	80.9	83.1	61	66.2	0	1	0	0.00	29.913 
09:10	81.6	81.6	83.9	60	66.3	0	2	315	0.00	29.912 
09:15	82.2	82.2	84.3	58	65.9	0	1	315	0.00	29.912 
09:20	83.0	83.0	85.5	58	66.7	0	1	315	0.00	29.911 
09:25	83.4	83.4	85.8	57	66.5	0	2	315	0.00	29.910 
09:30	84.0	84.0	86.7	57	67.1	0	1	315	0.00	29.909 
09:35	84.5	84.5	87.0	55	66.5	0	3	315	0.00	29.910 
09:40	85.1	85.1	88.2	56	67.6	0	3	315	0.00	29.908 
09:45	85.5	85.5	88.3	54	66.9	1	4	315	0.00	29.910 
09:50	85.7	85.7	88.9	55	67.6	0	4	270	0.00	29.913 
09:55	86.1	86.1	88.6	52	66.4	1	2	270	0.00	29.914 
10:00	86.1	86.1	88.6	52	66.4	1	2	270	0.00	29.912 
10:05	86.5	86.5	88.9	51	66.2	0	2	270	0.00	29.914 
10:10	86.7	86.7	88.9	50	65.8	0	2	270	0.00	29.913 
10:15	87.0	87.0	89.1	49	65.5	0	2	270	0.00	29.914 
10:20	87.2	87.2	89.7	50	66.3	0	1	270	0.00	29.916 
10:25	87.4	87.4	90.1	50	66.4	0	1	292	0.00	29.912 
10:30	87.8	87.8	90.0	48	65.6	0	2	315	0.00	29.910 
10:35	88.2	88.2	90.7	48	66.0	0	1	315	0.00	29.913 
10:40	88.4	88.4	91.3	49	66.8	0	2	315	0.00	29.912 
10:45	88.8	88.8	91.3	47	65.9	0	2	315	0.00	29.908 
10:50	89.3	89.3	92.5	48	67.0	0	1	315	0.00	29.908 
10:55	89.5	89.5	92.4	47	66.6	0	2	292	0.00	29.908 
11:00	89.7	89.7	92.8	47	66.7	1	2	292	0.00	29.912 
11:05	90.1	90.1	93.1	46	66.5	0	2	292	0.00	29.911 
11:10	90.3	90.3	93.4	46	66.7	0	2	292	0.00	29.909 
11:15	90.7	90.7	94.1	46	67.0	0	3	292	0.00	29.906 
11:20	90.7	90.7	94.1	46	67.0	1	2	292	0.00	29.905 
11:25	90.5	90.5	93.8	46	66.8	1	3	292	0.00	29.905 
11:30	91.0	91.0	94.6	46	67.3	1	2	315	0.00	29.904 
11:35	91.2	91.2	94.5	45	66.8	0	2	315	0.00	29.903 
11:40	91.6	91.6	94.4	43	65.9	0	3	112	0.00	29.902 
11:45	92.1	92.1	95.2	43	66.3	0	2	112	0.00	29.898 
11:50	92.7	92.7	95.8	42	66.2	1	3	112	0.00	29.893 
11:55	93.2	93.2	96.7	42	66.6	0	2	270	0.00	29.890 
12:00	92.9	92.9	95.7	41	65.7	1	3	270	0.00	29.888 
12:05	92.7	92.7	95.8	42	66.2	0	3	270	0.00	29.888 
12:10	92.3	92.3	95.1	42	65.8	0	2	270	0.00	29.888 
12:15	92.1	92.1	94.8	42	65.7	0	2	270	0.00	29.890 
12:20	92.1	92.1	95.2	43	66.3	0	3	270	0.00	29.888 
12:25	91.4	91.4	93.6	42	65.0	1	3	270	0.00	29.887 
12:30	90.5	90.5	92.5	43	64.9	1	2	270	0.00	29.886 
12:35	90.3	90.3	92.6	44	65.4	0	1	270	0.00	29.887 
12:40	90.1	90.1	92.3	44	65.2	1	2	270	0.00	29.884 
12:45	90.1	90.1	92.3	44	65.2	1	2	270	0.00	29.882 
12:50	89.9	89.9	91.9	44	65.0	1	3	270	0.00	29.880 
12:55	89.7	89.7	92.4	46	66.1	0	1	270	0.00	29.879 
13:00	89.5	89.5	91.7	45	65.3	0	1	270	0.00	29.877 
13:05	89.7	89.7	92.4	46	66.1	0	2	270	0.00	29.878 
13:10	89.9	89.9	92.7	46	66.3	0	1	270	0.00	29.877 
13:15	90.5	90.5	92.9	44	65.6	0	2	270	0.00	29.874 
13:20	91.2	91.2	93.7	43	65.5	0	2	270	0.00	29.872 
13:25	91.8	91.8	94.3	42	65.4	1	2	270	0.00	29.871 
13:30	91.8	91.8	94.3	42	65.4	0	2	270	0.00	29.871 
13:35	91.2	91.2	93.7	43	65.5	0	1	270	0.00	29.866 
13:40	90.5	90.5	92.5	43	64.9	0	1	270	0.00	29.865 
13:45	89.9	89.9	92.7	46	66.3	1	3	292	0.00	29.862 
13:50	89.3	89.3	92.1	47	66.4	0	1	292	0.00	29.862 
13:55	88.6	88.6	91.3	48	66.4	0	2	292	0.00	29.862 
14:00	88.2	88.2	91.4	50	67.2	0	1	292	0.00	29.862 
14:05	88.0	88.0	90.7	49	66.4	0	2	292	0.00	29.862 
14:10	87.6	87.6	90.7	51	67.2	0	2	292	0.00	29.862 
14:15	87.6	87.6	91.8	54	68.9	0	1	292	0.01	29.861 
14:20	87.0	87.0	94.3	63	72.8	1	2	292	0.01	29.861 
14:25	85.5	85.5	92.7	67	73.3	1	3	45	0.00	29.855 
14:30	84.0	84.0	89.5	67	71.8	3	5	90	0.00	29.852 
14:35	84.0	84.0	90.2	69	72.7	1	3	68	0.00	29.849 
14:40	84.7	84.7	90.3	65	71.6	0	2	68	0.00	29.849 
14:45	85.5	85.5	90.8	62	71.0	1	4	112	0.00	29.847 
14:50	86.3	86.3	90.9	58	69.7	2	4	112	0.00	29.841 
14:55	87.0	87.0	91.1	55	68.8	1	2	90	0.00	29.841 
15:00	87.2	87.2	91.1	54	68.5	1	3	90	0.00	29.837 
15:05	87.2	87.2	91.1	54	68.5	1	3	90	0.00	29.834 
15:10	87.2	87.2	91.1	54	68.5	0	1	90	0.00	29.833 
15:15	87.2	87.2	90.1	51	66.8	0	1	90	0.00	29.831 
15:20	87.4	87.4	91.9	55	69.2	0	1	90	0.00	29.830 
15:25	87.8	87.8	92.2	54	69.0	0	2	90	0.00	29.825 
15:30	88.6	88.6	91.7	49	67.0	0	2	90	0.00	29.827 
15:35	89.3	89.3	92.5	48	67.0	0	1	90	0.00	29.826 
15:40	89.5	89.5	92.1	46	65.9	0	1	90	0.00	29.822 
15:45	89.5	89.5	92.1	46	65.9	0	1	90	0.00	29.819 
15:50	89.3	89.3	92.5	48	67.0	0	1	90	0.00	29.821 
15:55	89.0	89.0	92.0	48	66.7	0	0	---	0.00	29.820 
16:00	88.8	88.8	91.3	47	65.9	0	1	90	0.00	29.816 
16:05	88.8	88.8	91.3	47	65.9	0	1	90	0.00	29.817 
16:10	89.0	89.0	92.0	48	66.7	0	1	90	0.00	29.812 
16:15	89.0	89.0	92.0	48	66.7	0	2	90	0.00	29.815 
16:20	89.3	89.3	92.1	47	66.4	0	2	90	0.00	29.814 
16:25	89.0	89.0	92.0	48	66.7	1	2	90	0.00	29.806 
16:30	88.4	88.4	90.6	47	65.6	1	3	90	0.00	29.804 
16:35	87.4	87.4	88.8	46	64.0	0	2	90	0.00	29.808 
16:40	86.5	86.5	87.8	47	63.8	0	1	90	0.00	29.812 
16:45	85.7	85.7	87.2	49	64.3	0	1	90	0.00	29.816 
16:50	85.1	85.1	86.9	51	64.9	1	3	135	0.00	29.813 
16:55	84.5	84.5	86.3	52	64.9	1	3	90	0.00	29.806 
17:00	83.6	83.6	85.7	55	65.7	0	3	315	0.00	29.818 

CoCoRaHS
IN-AL-39
A2 Web Hosting
Creative Commons License
GoDaddy
Look for:

loaded 2017-12-11 14:28:20 • last modified 2010-11-18 10:43:29
Privacy PolicyDisclaimer
• wx.awcolley.com is powered by PmWiki v.2002016 •
• all content (unless otherwise noted) © 2017 A W Colley